sensor_id;sensor_type;location;lat;lon;timestamp;P1;durP1;ratioP1;P2;durP2;ratioP2
15474;SDS011;7839;50.462;9.678;2022-08-19T00:01:07;5.53;;;5.13;;
15474;SDS011;7839;50.462;9.678;2022-08-19T00:07:48;5.73;;;5.33;;
15474;SDS011;7839;50.462;9.678;2022-08-19T00:14:29;5.78;;;5.38;;
15474;SDS011;7839;50.462;9.678;2022-08-19T00:21:12;5.05;;;4.75;;
15474;SDS011;7839;50.462;9.678;2022-08-19T00:27:53;5.05;;;4.75;;
15474;SDS011;7839;50.462;9.678;2022-08-19T00:34:34;5.30;;;4.90;;
15474;SDS011;7839;50.462;9.678;2022-08-19T00:41:16;4.15;;;3.85;;
15474;SDS011;7839;50.462;9.678;2022-08-19T00:47:57;4.82;;;4.53;;
15474;SDS011;7839;50.462;9.678;2022-08-19T00:54:38;4.75;;;4.45;;
15474;SDS011;7839;50.462;9.678;2022-08-19T01:01:19;4.60;;;4.30;;
15474;SDS011;7839;50.462;9.678;2022-08-19T01:08:00;4.10;;;3.80;;
15474;SDS011;7839;50.462;9.678;2022-08-19T01:14:40;4.78;;;4.47;;
15474;SDS011;7839;50.462;9.678;2022-08-19T01:21:43;4.25;;;3.95;;
15474;SDS011;7839;50.462;9.678;2022-08-19T01:28:22;3.85;;;3.60;;
15474;SDS011;7839;50.462;9.678;2022-08-19T01:35:03;3.83;;;3.63;;
15474;SDS011;7839;50.462;9.678;2022-08-19T01:41:44;4.20;;;3.90;;
15474;SDS011;7839;50.462;9.678;2022-08-19T01:48:24;3.95;;;3.65;;
15474;SDS011;7839;50.462;9.678;2022-08-19T01:55:06;17.48;;;15.73;;
15474;SDS011;7839;50.462;9.678;2022-08-19T02:01:46;3.90;;;3.60;;
15474;SDS011;7839;50.462;9.678;2022-08-19T02:08:27;11.90;;;10.70;;
15474;SDS011;7839;50.462;9.678;2022-08-19T02:15:07;20.17;;;17.92;;
15474;SDS011;7839;50.462;9.678;2022-08-19T02:21:47;19.43;;;17.43;;
15474;SDS011;7839;50.462;9.678;2022-08-19T02:28:28;21.52;;;18.42;;
15474;SDS011;7839;50.462;9.678;2022-08-19T02:35:08;14.57;;;13.10;;
15474;SDS011;7839;50.462;9.678;2022-08-19T02:41:49;19.23;;;17.20;;
15474;SDS011;7839;50.462;9.678;2022-08-19T02:48:30;21.00;;;18.80;;
15474;SDS011;7839;50.462;9.678;2022-08-19T02:55:12;13.45;;;12.13;;
15474;SDS011;7839;50.462;9.678;2022-08-19T03:01:52;6.28;;;5.78;;
15474;SDS011;7839;50.462;9.678;2022-08-19T03:08:33;19.92;;;17.83;;
15474;SDS011;7839;50.462;9.678;2022-08-19T03:15:13;20.73;;;18.50;;
15474;SDS011;7839;50.462;9.678;2022-08-19T03:21:53;20.75;;;18.45;;
15474;SDS011;7839;50.462;9.678;2022-08-19T03:28:35;8.48;;;7.70;;
15474;SDS011;7839;50.462;9.678;2022-08-19T03:35:16;5.53;;;5.10;;
15474;SDS011;7839;50.462;9.678;2022-08-19T03:41:56;4.88;;;4.57;;
15474;SDS011;7839;50.462;9.678;2022-08-19T03:48:39;5.18;;;4.80;;
15474;SDS011;7839;50.462;9.678;2022-08-19T03:55:20;4.97;;;4.63;;
15474;SDS011;7839;50.462;9.678;2022-08-19T04:02:01;16.58;;;14.93;;
15474;SDS011;7839;50.462;9.678;2022-08-19T04:08:42;4.68;;;4.38;;
15474;SDS011;7839;50.462;9.678;2022-08-19T04:15:22;4.35;;;4.05;;
15474;SDS011;7839;50.462;9.678;2022-08-19T04:22:03;17.10;;;15.40;;
15474;SDS011;7839;50.462;9.678;2022-08-19T04:28:44;18.08;;;16.35;;
15474;SDS011;7839;50.462;9.678;2022-08-19T04:35:24;20.02;;;17.98;;
15474;SDS011;7839;50.462;9.678;2022-08-19T04:42:04;20.63;;;18.40;;
15474;SDS011;7839;50.462;9.678;2022-08-19T04:49:05;21.05;;;18.85;;
15474;SDS011;7839;50.462;9.678;2022-08-19T04:55:45;14.53;;;12.87;;
15474;SDS011;7839;50.462;9.678;2022-08-19T05:02:25;18.20;;;16.33;;
15474;SDS011;7839;50.462;9.678;2022-08-19T05:09:05;21.10;;;18.08;;
15474;SDS011;7839;50.462;9.678;2022-08-19T05:15:53;18.90;;;17.00;;
15474;SDS011;7839;50.462;9.678;2022-08-19T05:22:34;16.67;;;15.03;;
15474;SDS011;7839;50.462;9.678;2022-08-19T05:29:20;21.93;;;17.07;;
15474;SDS011;7839;50.462;9.678;2022-08-19T05:36:01;15.83;;;14.03;;
15474;SDS011;7839;50.462;9.678;2022-08-19T05:42:41;16.90;;;15.10;;
15474;SDS011;7839;50.462;9.678;2022-08-19T05:49:22;14.47;;;13.10;;
15474;SDS011;7839;50.462;9.678;2022-08-19T05:56:03;21.13;;;16.47;;
15474;SDS011;7839;50.462;9.678;2022-08-19T06:02:43;21.37;;;16.17;;
15474;SDS011;7839;50.462;9.678;2022-08-19T06:09:24;19.07;;;15.63;;
15474;SDS011;7839;50.462;9.678;2022-08-19T06:16:04;17.53;;;15.67;;
15474;SDS011;7839;50.462;9.678;2022-08-19T06:22:45;18.57;;;16.70;;
15474;SDS011;7839;50.462;9.678;2022-08-19T06:29:26;18.40;;;14.97;;
15474;SDS011;7839;50.462;9.678;2022-08-19T06:36:07;17.17;;;15.27;;
15474;SDS011;7839;50.462;9.678;2022-08-19T06:42:48;18.00;;;15.97;;
15474;SDS011;7839;50.462;9.678;2022-08-19T06:49:28;16.77;;;14.73;;
15474;SDS011;7839;50.462;9.678;2022-08-19T06:56:10;16.03;;;14.33;;
15474;SDS011;7839;50.462;9.678;2022-08-19T07:02:51;15.40;;;13.20;;
15474;SDS011;7839;50.462;9.678;2022-08-19T07:09:31;16.47;;;11.37;;
15474;SDS011;7839;50.462;9.678;2022-08-19T07:16:13;14.40;;;11.50;;
15474;SDS011;7839;50.462;9.678;2022-08-19T07:22:54;13.40;;;12.13;;
15474;SDS011;7839;50.462;9.678;2022-08-19T07:29:35;14.10;;;12.60;;
15474;SDS011;7839;50.462;9.678;2022-08-19T07:36:17;13.47;;;11.97;;
15474;SDS011;7839;50.462;9.678;2022-08-19T07:42:58;14.37;;;10.93;;
15474;SDS011;7839;50.462;9.678;2022-08-19T07:49:38;15.13;;;12.13;;
15474;SDS011;7839;50.462;9.678;2022-08-19T07:56:19;15.20;;;11.70;;
15474;SDS011;7839;50.462;9.678;2022-08-19T08:03:00;13.07;;;11.53;;
15474;SDS011;7839;50.462;9.678;2022-08-19T08:09:41;14.03;;;11.33;;
15474;SDS011;7839;50.462;9.678;2022-08-19T08:16:21;14.90;;;10.80;;
15474;SDS011;7839;50.462;9.678;2022-08-19T08:23:01;13.27;;;10.43;;
15474;SDS011;7839;50.462;9.678;2022-08-19T08:30:00;10.67;;;9.43;;
15474;SDS011;7839;50.462;9.678;2022-08-19T08:36:43;8.83;;;8.03;;
15474;SDS011;7839;50.462;9.678;2022-08-19T08:43:35;8.80;;;8.00;;
15474;SDS011;7839;50.462;9.678;2022-08-19T08:50:21;6.10;;;5.50;;
15474;SDS011;7839;50.462;9.678;2022-08-19T08:57:05;12.87;;;6.07;;
15474;SDS011;7839;50.462;9.678;2022-08-19T09:03:46;4.90;;;4.50;;
15474;SDS011;7839;50.462;9.678;2022-08-19T09:10:38;6.20;;;4.30;;
15474;SDS011;7839;50.462;9.678;2022-08-19T09:17:19;6.70;;;4.80;;
15474;SDS011;7839;50.462;9.678;2022-08-19T09:24:02;8.57;;;4.90;;
15474;SDS011;7839;50.462;9.678;2022-08-19T09:30:43;5.03;;;4.27;;
15474;SDS011;7839;50.462;9.678;2022-08-19T09:37:24;4.70;;;4.30;;
15474;SDS011;7839;50.462;9.678;2022-08-19T09:44:04;4.87;;;3.53;;
15474;SDS011;7839;50.462;9.678;2022-08-19T09:50:45;5.87;;;3.90;;
15474;SDS011;7839;50.462;9.678;2022-08-19T09:57:25;4.40;;;3.57;;
15474;SDS011;7839;50.462;9.678;2022-08-19T10:04:05;4.23;;;3.83;;
15474;SDS011;7839;50.462;9.678;2022-08-19T10:10:49;5.63;;;4.23;;
15474;SDS011;7839;50.462;9.678;2022-08-19T10:17:30;4.77;;;3.43;;
15474;SDS011;7839;50.462;9.678;2022-08-19T10:24:13;3.47;;;3.20;;
15474;SDS011;7839;50.462;9.678;2022-08-19T10:30:53;3.23;;;3.03;;
15474;SDS011;7839;50.462;9.678;2022-08-19T10:37:34;2.97;;;2.77;;
15474;SDS011;7839;50.462;9.678;2022-08-19T10:44:14;3.33;;;2.73;;
15474;SDS011;7839;50.462;9.678;2022-08-19T10:50:56;3.00;;;2.70;;
15474;SDS011;7839;50.462;9.678;2022-08-19T10:57:55;2.50;;;2.30;;
15474;SDS011;7839;50.462;9.678;2022-08-19T11:04:37;3.05;;;2.85;;
15474;SDS011;7839;50.462;9.678;2022-08-19T11:11:19;3.40;;;3.08;;
15474;SDS011;7839;50.462;9.678;2022-08-19T11:17:59;3.33;;;3.03;;
15474;SDS011;7839;50.462;9.678;2022-08-19T11:24:39;3.40;;;2.55;;
15474;SDS011;7839;50.462;9.678;2022-08-19T11:31:21;2.20;;;2.10;;
15474;SDS011;7839;50.462;9.678;2022-08-19T11:38:01;4.03;;;2.53;;
15474;SDS011;7839;50.462;9.678;2022-08-19T11:44:42;3.70;;;2.00;;
15474;SDS011;7839;50.462;9.678;2022-08-19T11:51:23;1.88;;;1.77;;
15474;SDS011;7839;50.462;9.678;2022-08-19T11:58:04;2.10;;;1.90;;
15474;SDS011;7839;50.462;9.678;2022-08-19T12:04:46;2.88;;;1.88;;
15474;SDS011;7839;50.462;9.678;2022-08-19T12:11:27;2.83;;;1.88;;
15474;SDS011;7839;50.462;9.678;2022-08-19T12:18:08;2.65;;;1.92;;
15474;SDS011;7839;50.462;9.678;2022-08-19T12:24:49;1.98;;;1.67;;
15474;SDS011;7839;50.462;9.678;2022-08-19T12:31:31;2.28;;;1.77;;
15474;SDS011;7839;50.462;9.678;2022-08-19T12:38:12;1.58;;;1.48;;
15474;SDS011;7839;50.462;9.678;2022-08-19T12:44:52;2.30;;;2.10;;
15474;SDS011;7839;50.462;9.678;2022-08-19T12:51:32;2.20;;;2.00;;
15474;SDS011;7839;50.462;9.678;2022-08-19T12:58:12;3.10;;;1.63;;
15474;SDS011;7839;50.462;9.678;2022-08-19T13:04:53;1.98;;;1.88;;
15474;SDS011;7839;50.462;9.678;2022-08-19T13:11:33;1.92;;;1.83;;
15474;SDS011;7839;50.462;9.678;2022-08-19T13:18:14;1.98;;;1.88;;
15474;SDS011;7839;50.462;9.678;2022-08-19T13:24:54;2.17;;;2.00;;
15474;SDS011;7839;50.462;9.678;2022-08-19T13:31:35;2.00;;;1.90;;
15474;SDS011;7839;50.462;9.678;2022-08-19T13:38:34;1.95;;;1.73;;
15474;SDS011;7839;50.462;9.678;2022-08-19T13:45:19;3.38;;;2.00;;
15474;SDS011;7839;50.462;9.678;2022-08-19T13:51:59;2.45;;;2.22;;
15474;SDS011;7839;50.462;9.678;2022-08-19T13:58:40;2.75;;;1.90;;
15474;SDS011;7839;50.462;9.678;2022-08-19T14:05:20;1.98;;;1.77;;
15474;SDS011;7839;50.462;9.678;2022-08-19T14:12:00;2.00;;;1.83;;
15474;SDS011;7839;50.462;9.678;2022-08-19T14:18:41;2.03;;;1.88;;
15474;SDS011;7839;50.462;9.678;2022-08-19T14:25:24;2.45;;;2.05;;
15474;SDS011;7839;50.462;9.678;2022-08-19T14:32:04;2.22;;;2.13;;
15474;SDS011;7839;50.462;9.678;2022-08-19T14:38:45;2.10;;;2.00;;
15474;SDS011;7839;50.462;9.678;2022-08-19T14:45:26;2.35;;;1.60;;
15474;SDS011;7839;50.462;9.678;2022-08-19T14:52:06;2.42;;;1.80;;
15474;SDS011;7839;50.462;9.678;2022-08-19T14:58:47;2.92;;;2.20;;
15474;SDS011;7839;50.462;9.678;2022-08-19T15:05:27;2.25;;;2.00;;
15474;SDS011;7839;50.462;9.678;2022-08-19T15:12:07;2.38;;;2.17;;
15474;SDS011;7839;50.462;9.678;2022-08-19T15:18:48;2.22;;;2.13;;
15474;SDS011;7839;50.462;9.678;2022-08-19T15:25:29;2.05;;;1.90;;
15474;SDS011;7839;50.462;9.678;2022-08-19T15:32:09;2.25;;;2.10;;
15474;SDS011;7839;50.462;9.678;2022-08-19T15:38:50;2.03;;;1.92;;
15474;SDS011;7839;50.462;9.678;2022-08-19T15:45:32;3.35;;;2.28;;
15474;SDS011;7839;50.462;9.678;2022-08-19T15:52:12;2.67;;;2.47;;
15474;SDS011;7839;50.462;9.678;2022-08-19T15:58:52;2.65;;;2.45;;
15474;SDS011;7839;50.462;9.678;2022-08-19T16:06:11;4.28;;;2.10;;
15474;SDS011;7839;50.462;9.678;2022-08-19T16:13:07;2.42;;;2.22;;
15474;SDS011;7839;50.462;9.678;2022-08-19T16:19:48;2.38;;;2.10;;
15474;SDS011;7839;50.462;9.678;2022-08-19T16:26:28;4.10;;;2.28;;
15474;SDS011;7839;50.462;9.678;2022-08-19T16:33:10;3.75;;;2.40;;
15474;SDS011;7839;50.462;9.678;2022-08-19T16:39:50;5.10;;;2.50;;
15474;SDS011;7839;50.462;9.678;2022-08-19T16:46:30;4.15;;;2.30;;
15474;SDS011;7839;50.462;9.678;2022-08-19T16:53:10;2.58;;;2.38;;
15474;SDS011;7839;50.462;9.678;2022-08-19T16:59:51;2.75;;;2.30;;
15474;SDS011;7839;50.462;9.678;2022-08-19T17:06:31;3.97;;;2.53;;
15474;SDS011;7839;50.462;9.678;2022-08-19T17:13:12;2.88;;;2.45;;
15474;SDS011;7839;50.462;9.678;2022-08-19T17:19:56;3.30;;;3.00;;
15474;SDS011;7839;50.462;9.678;2022-08-19T17:26:37;5.63;;;2.70;;
15474;SDS011;7839;50.462;9.678;2022-08-19T17:33:18;3.10;;;2.90;;
15474;SDS011;7839;50.462;9.678;2022-08-19T17:39:58;2.20;;;2.10;;
15474;SDS011;7839;50.462;9.678;2022-08-19T17:46:38;2.85;;;2.65;;
15474;SDS011;7839;50.462;9.678;2022-08-19T17:53:18;2.28;;;2.15;;
15474;SDS011;7839;50.462;9.678;2022-08-19T17:59:59;3.03;;;2.33;;
15474;SDS011;7839;50.462;9.678;2022-08-19T18:06:39;2.67;;;2.47;;
15474;SDS011;7839;50.462;9.678;2022-08-19T18:13:20;2.40;;;2.30;;
15474;SDS011;7839;50.462;9.678;2022-08-19T18:20:00;2.60;;;2.40;;
15474;SDS011;7839;50.462;9.678;2022-08-19T18:26:41;2.33;;;2.22;;
15474;SDS011;7839;50.462;9.678;2022-08-19T18:33:21;2.42;;;2.33;;
15474;SDS011;7839;50.462;9.678;2022-08-19T18:40:02;2.70;;;2.50;;
15474;SDS011;7839;50.462;9.678;2022-08-19T18:47:01;2.50;;;2.30;;
15474;SDS011;7839;50.462;9.678;2022-08-19T18:54:00;2.55;;;2.38;;
15474;SDS011;7839;50.462;9.678;2022-08-19T19:00:41;2.20;;;2.10;;
15474;SDS011;7839;50.462;9.678;2022-08-19T19:07:22;2.47;;;2.28;;
15474;SDS011;7839;50.462;9.678;2022-08-19T19:14:04;2.47;;;2.38;;
15474;SDS011;7839;50.462;9.678;2022-08-19T19:20:49;2.42;;;2.33;;
15474;SDS011;7839;50.462;9.678;2022-08-19T19:27:29;2.45;;;2.35;;
15474;SDS011;7839;50.462;9.678;2022-08-19T19:34:10;2.50;;;2.40;;
15474;SDS011;7839;50.462;9.678;2022-08-19T19:40:50;2.55;;;2.45;;
15474;SDS011;7839;50.462;9.678;2022-08-19T19:47:31;2.75;;;2.63;;
15474;SDS011;7839;50.462;9.678;2022-08-19T19:54:11;2.25;;;2.15;;
15474;SDS011;7839;50.462;9.678;2022-08-19T20:00:52;2.75;;;2.58;;
15474;SDS011;7839;50.462;9.678;2022-08-19T20:07:32;2.60;;;2.50;;
15474;SDS011;7839;50.462;9.678;2022-08-19T20:14:32;2.30;;;2.20;;
15474;SDS011;7839;50.462;9.678;2022-08-19T20:21:14;2.20;;;2.10;;
15474;SDS011;7839;50.462;9.678;2022-08-19T20:27:55;2.45;;;2.25;;
15474;SDS011;7839;50.462;9.678;2022-08-19T20:34:36;2.00;;;1.90;;
15474;SDS011;7839;50.462;9.678;2022-08-19T20:41:17;2.00;;;1.90;;
15474;SDS011;7839;50.462;9.678;2022-08-19T20:47:59;2.05;;;1.95;;
15474;SDS011;7839;50.462;9.678;2022-08-19T20:54:41;1.90;;;1.80;;
15474;SDS011;7839;50.462;9.678;2022-08-19T21:01:21;1.98;;;1.88;;
15474;SDS011;7839;50.462;9.678;2022-08-19T21:08:02;2.80;;;2.60;;
15474;SDS011;7839;50.462;9.678;2022-08-19T21:14:43;1.90;;;1.80;;
15474;SDS011;7839;50.462;9.678;2022-08-19T21:21:23;6.10;;;3.10;;
15474;SDS011;7839;50.462;9.678;2022-08-19T21:28:04;1.80;;;1.70;;
15474;SDS011;7839;50.462;9.678;2022-08-19T21:34:44;1.48;;;1.48;;
15474;SDS011;7839;50.462;9.678;2022-08-19T21:41:25;1.65;;;1.58;;
15474;SDS011;7839;50.462;9.678;2022-08-19T21:48:06;1.50;;;1.40;;
15474;SDS011;7839;50.462;9.678;2022-08-19T21:54:47;1.60;;;1.50;;
15474;SDS011;7839;50.462;9.678;2022-08-19T22:01:27;1.60;;;1.50;;
15474;SDS011;7839;50.462;9.678;2022-08-19T22:08:07;1.30;;;1.30;;
15474;SDS011;7839;50.462;9.678;2022-08-19T22:14:48;1.27;;;1.27;;
15474;SDS011;7839;50.462;9.678;2022-08-19T22:21:29;1.30;;;1.30;;
15474;SDS011;7839;50.462;9.678;2022-08-19T22:28:11;1.30;;;1.30;;
15474;SDS011;7839;50.462;9.678;2022-08-19T22:34:51;1.75;;;1.65;;
15474;SDS011;7839;50.462;9.678;2022-08-19T22:41:32;1.30;;;1.30;;
15474;SDS011;7839;50.462;9.678;2022-08-19T22:48:13;1.20;;;1.20;;
15474;SDS011;7839;50.462;9.678;2022-08-19T22:54:54;1.20;;;1.20;;
15474;SDS011;7839;50.462;9.678;2022-08-19T23:01:35;1.30;;;1.30;;
15474;SDS011;7839;50.462;9.678;2022-08-19T23:08:15;1.10;;;1.10;;
15474;SDS011;7839;50.462;9.678;2022-08-19T23:15:00;1.58;;;1.48;;
15474;SDS011;7839;50.462;9.678;2022-08-19T23:21:40;1.30;;;1.30;;
15474;SDS011;7839;50.462;9.678;2022-08-19T23:28:21;3.35;;;3.08;;
15474;SDS011;7839;50.462;9.678;2022-08-19T23:35:20;3.42;;;3.00;;
15474;SDS011;7839;50.462;9.678;2022-08-19T23:42:00;1.67;;;1.58;;
15474;SDS011;7839;50.462;9.678;2022-08-19T23:48:41;1.52;;;1.42;;
15474;SDS011;7839;50.462;9.678;2022-08-19T23:55:23;1.40;;;1.40;;
